Time;durP1;ratioP1;P1;durP2;ratioP2;P2;SDS_P1;SDS_P2;PMS_P1;PMS_P2;Temp;Humidity;BMP_temperature;BMP_pressure;BME280_temperature;BME280_humidity;BME280_pressure;Samples;Min_cycle;Max_cycle;Signal;HPM_P1;HPM_P2
2023/04/09 00:01:08;;;;;;;72.10;40.63;;;;;;;7.35;77.05;102832.97;7393023;19;20002;-51
2023/04/09 00:03:34;;;;;;;73.05;40.85;;;;;;;7.39;76.61;102837.28;7392786;19;19994;-53
2023/04/09 00:06:00;;;;;;;68.15;38.97;;;;;;;7.35;77.06;102831.22;7390632;19;20007;-54
2023/04/09 00:08:25;;;;;;;69.55;40.00;;;;;;;7.42;76.74;102830.06;7391727;19;20001;-50
2023/04/09 00:10:52;;;;;;;68.25;40.03;;;;;;;7.38;76.99;102833.72;7391278;19;20022;-50
2023/04/09 00:13:18;;;;;;;73.82;40.35;;;;;;;7.42;76.57;102835.34;7392861;19;19995;-54
2023/04/09 00:15:46;;;;;;;70.43;40.85;;;;;;;7.41;76.81;102833.63;7392891;19;19999;-53
2023/04/09 00:18:13;;;;;;;70.00;40.60;;;;;;;7.44;76.70;102833.53;7392440;19;20002;-55
2023/04/09 00:20:39;;;;;;;67.07;38.45;;;;;;;7.43;76.52;102826.53;7391770;19;20478;-55
2023/04/09 00:23:04;;;;;;;68.68;39.20;;;;;;;7.36;76.63;102825.00;7391889;19;20483;-52
2023/04/09 00:25:30;;;;;;;74.18;39.53;;;;;;;7.40;76.94;102823.97;7392280;19;19994;-53
2023/04/09 00:27:56;;;;;;;71.72;39.97;;;;;;;7.33;77.06;102827.75;7391883;19;20002;-55
2023/04/09 00:30:21;;;;;;;71.60;39.35;;;;;;;7.37;76.80;102820.56;7391438;19;20014;-51
2023/04/09 00:32:47;;;;;;;75.90;40.63;;;;;;;7.41;76.52;102825.69;7392796;19;19998;-54
2023/04/09 00:35:13;;;;;;;75.40;40.88;;;;;;;7.38;76.47;102820.50;7391514;19;20567;-52
2023/04/09 00:37:39;;;;;;;70.28;40.75;;;;;;;7.31;77.00;102820.78;7388822;19;20081;-54
2023/04/09 00:40:05;;;;;;;74.70;43.25;;;;;;;7.37;76.78;102820.56;7390764;19;20466;-52
2023/04/09 00:42:32;;;;;;;78.40;43.72;;;;;;;7.40;76.60;102821.34;7392184;19;20005;-52
2023/04/09 00:44:58;;;;;;;75.68;43.67;;;;;;;7.45;76.63;102816.72;7390438;19;20039;-51
2023/04/09 00:47:24;;;;;;;68.47;39.45;;;;;;;7.43;76.57;102821.22;7390747;19;20030;-52
2023/04/09 00:49:50;;;;;;;58.92;38.30;;;;;;;7.39;76.58;102814.34;7390243;19;20129;-54
2023/04/09 00:52:16;;;;;;;68.07;38.65;;;;;;;7.19;77.67;102814.16;7391962;19;20006;-54
2023/04/09 00:54:42;;;;;;;66.57;36.92;;;;;;;7.29;77.28;102810.28;7391415;19;20019;-53
2023/04/09 00:57:10;;;;;;;58.97;35.28;;;;;;;7.36;77.01;102816.22;7390747;19;20003;-53
2023/04/09 00:59:35;;;;;;;66.38;37.58;;;;;;;7.29;76.79;102807.63;7391472;19;19994;-53
2023/04/09 01:02:01;;;;;;;65.15;37.05;;;;;;;7.22;77.34;102808.75;7391004;19;19999;-53
2023/04/09 01:04:27;;;;;;;61.45;35.15;;;;;;;7.10;77.84;102807.41;7389202;19;20036;-55
2023/04/09 01:07:02;;;;;;;59.60;35.22;;;;;;;7.26;77.29;102805.09;7390756;19;20455;-52
2023/04/09 01:09:40;;;;;;;62.97;36.33;;;;;;;7.30;76.97;102806.69;7388878;19;20032;-54
2023/04/09 01:13:07;;;;;;;63.55;35.60;;;;;;;7.34;76.85;102813.59;7390067;19;20020;-52
2023/04/09 01:15:38;;;;;;;62.75;36.15;;;;;;;7.34;76.99;102808.31;7385792;19;20013;-52
2023/04/09 01:18:10;;;;;;;62.63;36.75;;;;;;;7.35;76.70;102806.53;7389854;19;19998;-53
2023/04/09 01:20:41;;;;;;;63.30;35.38;;;;;;;7.35;77.00;102807.44;7389472;19;20489;-55
2023/04/09 01:23:06;;;;;;;61.50;33.85;;;;;;;7.25;77.05;102806.88;7389875;19;19994;-54
2023/04/09 01:25:57;;;;;;;63.95;35.72;;;;;;;7.18;77.48;102807.13;7389708;19;20474;-53
2023/04/09 01:28:26;;;;;;;59.90;35.08;;;;;;;7.23;77.37;102803.44;7389733;19;20448;-53
2023/04/09 01:31:00;;;;;;;60.42;34.60;;;;;;;7.30;76.99;102804.06;7390848;19;20001;-55
2023/04/09 01:33:28;;;;;;;59.50;34.75;;;;;;;7.33;76.82;102805.75;7390086;19;20475;-53
2023/04/09 01:35:55;;;;;;;64.47;36.97;;;;;;;7.16;77.36;102806.34;7390609;19;20011;-53
2023/04/09 01:38:22;;;;;;;60.72;35.60;;;;;;;7.05;78.01;102803.22;7386181;19;20463;-54
2023/04/09 01:40:49;;;;;;;63.63;37.03;;;;;;;7.02;78.08;102804.16;7388448;19;20010;-53
2023/04/09 01:43:16;;;;;;;62.13;35.47;;;;;;;6.98;78.41;102800.75;7389780;19;20481;-53
2023/04/09 01:45:44;;;;;;;63.88;34.38;;;;;;;7.13;77.74;102802.03;7389518;19;20038;-54
2023/04/09 01:48:12;;;;;;;64.03;37.05;;;;;;;7.17;77.31;102801.00;7387270;19;19999;-54
2023/04/09 01:50:38;;;;;;;62.42;33.50;;;;;;;7.16;77.31;102796.63;7387850;19;20003;-54
2023/04/09 01:53:04;;;;;;;66.28;36.47;;;;;;;7.08;77.74;102803.06;7390072;19;20006;-53
2023/04/09 01:55:30;;;;;;;60.83;35.38;;;;;;;6.89;78.34;102800.19;7389094;19;19995;-53
2023/04/09 01:57:55;;;;;;;62.78;35.15;;;;;;;6.95;78.53;102797.34;7389357;19;20062;-53
2023/04/09 02:00:23;;;;;;;65.70;36.65;;;;;;;6.94;78.31;102799.13;7392677;19;20443;-54
2023/04/09 02:02:57;;;;;;;61.20;34.38;;;;;;;7.10;77.81;102803.91;7397055;19;20010;-54
2023/04/09 02:05:28;;;;;;;61.70;34.42;;;;;;;7.10;77.34;102804.75;7396870;19;20005;-53
2023/04/09 02:07:56;;;;;;;57.20;33.60;;;;;;;6.95;78.28;102800.84;7395550;19;20009;-54
2023/04/09 02:10:25;;;;;;;54.63;32.70;;;;;;;7.07;77.94;102802.22;7397009;19;20010;-54
2023/04/09 02:12:52;;;;;;;59.88;34.67;;;;;;;7.11;77.41;102798.56;7397413;19;20000;-55
2023/04/09 02:15:21;;;;;;;57.97;34.40;;;;;;;7.17;77.52;102800.13;7396693;19;20002;-53
2023/04/09 02:17:47;;;;;;;58.58;33.83;;;;;;;7.16;77.36;102796.63;7394025;19;20003;-53
2023/04/09 02:20:17;;;;;;;58.30;33.72;;;;;;;7.11;77.67;102789.75;7396127;19;19999;-53
2023/04/09 02:22:43;;;;;;;60.38;34.50;;;;;;;7.15;77.17;102799.31;7396033;19;19999;-53
2023/04/09 02:25:08;;;;;;;58.30;33.08;;;;;;;7.12;77.50;102794.13;7395207;19;20009;-53
2023/04/09 02:27:34;;;;;;;50.67;30.77;;;;;;;7.20;77.40;102792.09;7396117;19;20516;-54
2023/04/09 02:30:00;;;;;;;56.35;33.38;;;;;;;7.23;77.16;102794.63;7395663;19;20066;-53
2023/04/09 02:32:25;;;;;;;56.67;32.22;;;;;;;7.22;77.12;102800.81;7396017;19;20471;-51
2023/04/09 02:34:51;;;;;;;56.65;32.95;;;;;;;7.21;76.88;102796.47;7396240;19;20002;-53
2023/04/09 02:37:17;;;;;;;56.67;33.03;;;;;;;7.09;77.47;102800.41;7394899;19;20096;-54
2023/04/09 02:39:43;;;;;;;60.13;34.00;;;;;;;7.00;77.83;102796.31;7395420;19;20489;-53
2023/04/09 02:42:08;;;;;;;54.58;31.85;;;;;;;7.09;77.43;102787.19;7395568;19;20002;-53
2023/04/09 02:44:34;;;;;;;53.60;31.80;;;;;;;7.04;77.70;102786.47;7395751;19;20072;-54
2023/04/09 02:46:59;;;;;;;53.15;31.65;;;;;;;7.13;77.49;102787.94;7395565;19;20336;-53
2023/04/09 02:49:25;;;;;;;53.25;33.08;;;;;;;7.15;77.23;102786.94;7392657;19;20062;-53
2023/04/09 02:51:50;;;;;;;56.53;31.30;;;;;;;7.13;77.00;102780.00;7394646;19;20002;-53
2023/04/09 02:54:16;;;;;;;56.17;32.17;;;;;;;7.01;77.67;102784.81;7395219;19;20439;-52
2023/04/09 02:56:42;;;;;;;53.67;32.13;;;;;;;7.11;77.57;102780.06;7394264;19;20002;-54
2023/04/09 02:59:07;;;;;;;53.60;30.83;;;;;;;7.14;76.95;102774.66;7393230;19;20336;-53
2023/04/09 03:01:33;;;;;;;51.50;30.23;;;;;;;7.18;76.83;102773.63;7394081;19;19991;-53
2023/04/09 03:03:59;;;;;;;50.65;30.17;;;;;;;7.19;76.69;102775.34;7395087;19;20002;-54
2023/04/09 03:06:25;;;;;;;51.47;29.42;;;;;;;7.21;76.81;102767.38;7394725;19;19999;-54
2023/04/09 03:08:51;;;;;;;51.95;29.77;;;;;;;7.07;77.20;102770.50;7392620;19;20614;-54
2023/04/09 03:11:16;;;;;;;51.67;31.45;;;;;;;7.03;77.38;102772.38;7391078;19;20467;-54
2023/04/09 03:13:42;;;;;;;57.85;32.50;;;;;;;6.87;78.08;102771.19;7395410;19;19991;-53
2023/04/09 03:16:09;;;;;;;53.55;30.17;;;;;;;6.83;78.18;102771.34;7394923;19;20069;-54
2023/04/09 03:18:35;;;;;;;60.97;32.33;;;;;;;6.83;77.91;102772.22;7392495;19;20007;-55
2023/04/09 03:21:07;;;;;;;55.47;29.35;;;;;;;6.82;78.49;102769.63;7394067;19;20451;-54
2023/04/09 03:23:34;;;;;;;54.53;31.75;;;;;;;6.94;77.74;102763.94;7394902;19;20003;-54
2023/04/09 03:26:04;;;;;;;50.80;29.45;;;;;;;7.03;77.28;102772.38;7394273;19;19994;-53
2023/04/09 03:28:29;;;;;;;54.45;29.20;;;;;;;7.12;76.88;102758.00;7391478;19;20442;-54
2023/04/09 03:30:55;;;;;;;55.03;30.85;;;;;;;7.16;76.58;102759.63;7393644;19;19991;-51
2023/04/09 03:33:21;;;;;;;53.50;30.45;;;;;;;7.18;76.36;102760.41;7394444;19;19991;-55
2023/04/09 03:35:53;;;;;;;52.95;29.40;;;;;;;7.18;76.46;102756.91;7393161;19;19995;-53
2023/04/09 03:38:18;;;;;;;52.30;29.48;;;;;;;6.98;77.13;102755.84;7390731;19;20014;-51
2023/04/09 03:40:44;;;;;;;51.08;29.05;;;;;;;6.98;76.95;102754.97;7393318;19;20015;-54
2023/04/09 03:43:10;;;;;;;51.15;29.20;;;;;;;6.98;77.11;102749.69;7393829;19;20020;-50
2023/04/09 03:45:35;;;;;;;49.60;28.13;;;;;;;6.91;77.10;102754.31;7394398;19;20385;-51
2023/04/09 03:48:01;;;;;;;45.88;26.38;;;;;;;6.99;76.86;102752.28;7393294;19;19994;-50
2023/04/09 03:50:27;;;;;;;48.03;28.38;;;;;;;7.03;76.36;102742.47;7391709;19;19999;-55
2023/04/09 03:52:52;;;;;;;52.63;28.27;;;;;;;7.07;76.08;102741.44;7394004;19;20321;-54
2023/04/09 03:55:18;;;;;;;43.80;26.02;;;;;;;6.96;76.52;102738.31;7392815;19;19994;-53
2023/04/09 03:57:43;;;;;;;49.70;26.42;;;;;;;7.01;76.17;102744.31;7392438;19;20449;-54
2023/04/09 04:00:09;;;;;;;46.47;25.83;;;;;;;6.93;76.20;102744.56;7392762;19;20005;-53
2023/04/09 04:02:35;;;;;;;43.60;25.90;;;;;;;6.86;76.58;102742.19;7391248;19;20009;-53
2023/04/09 04:05:01;;;;;;;39.95;25.13;;;;;;;6.92;76.21;102742.81;7390748;19;20365;-53
2023/04/09 04:07:26;;;;;;;47.03;25.45;;;;;;;6.93;75.80;102744.56;7393254;19;20054;-53
2023/04/09 04:09:52;;;;;;;41.50;24.77;;;;;;;6.90;75.81;102741.19;7390844;19;20022;-53
2023/04/09 04:12:17;;;;;;;40.08;23.75;;;;;;;6.92;75.74;102737.53;7392320;19;19998;-53
2023/04/09 04:14:43;;;;;;;40.30;24.23;;;;;;;6.92;75.66;102737.53;7392868;19;20062;-50
2023/04/09 04:17:09;;;;;;;42.33;24.10;;;;;;;6.89;75.47;102745.59;7392282;19;20015;-53
2023/04/09 04:19:34;;;;;;;41.90;24.88;;;;;;;6.69;76.19;102743.63;7390787;19;20008;-51
2023/04/09 04:22:00;;;;;;;40.05;23.52;;;;;;;6.69;76.25;102745.41;7391931;19;20463;-50
2023/04/09 04:24:26;;;;;;;43.70;23.95;;;;;;;6.77;75.96;102748.63;7390671;19;20010;-53
2023/04/09 04:26:51;;;;;;;38.90;22.00;;;;;;;6.74;76.01;102751.41;7391902;19;20006;-54
2023/04/09 04:29:17;;;;;;;37.20;22.02;;;;;;;6.77;75.95;102744.22;7390012;19;19998;-54
2023/04/09 04:31:42;;;;;;;40.38;23.10;;;;;;;6.70;75.74;102750.66;7390826;19;20321;-54
2023/04/09 04:34:08;;;;;;;39.92;22.92;;;;;;;6.74;75.74;102751.41;7390616;19;19999;-53
2023/04/09 04:36:35;;;;;;;38.28;22.20;;;;;;;6.68;76.05;102751.59;7389609;19;19991;-55
2023/04/09 04:39:00;;;;;;;37.45;23.20;;;;;;;6.72;75.67;102759.38;7388211;19;20011;-55
2023/04/09 04:41:26;;;;;;;37.65;22.83;;;;;;;6.69;75.80;102761.25;7392215;19;20002;-54
2023/04/09 04:43:51;;;;;;;36.45;22.52;;;;;;;6.74;75.82;102760.19;7391984;19;20036;-55
2023/04/09 04:46:19;;;;;;;40.33;23.50;;;;;;;6.77;75.19;102764.50;7389496;19;20013;-53
2023/04/09 04:48:44;;;;;;;35.88;22.45;;;;;;;6.81;75.34;102762.59;7389873;19;20369;-54
2023/04/09 04:51:10;;;;;;;37.58;22.08;;;;;;;6.88;75.04;102772.06;7391382;19;20002;-56
2023/04/09 04:53:35;;;;;;;32.40;20.20;;;;;;;6.88;74.68;102769.41;7390907;19;19995;-54
2023/04/09 04:56:01;;;;;;;38.78;23.38;;;;;;;6.89;74.70;102764.09;7391179;19;20007;-54
2023/04/09 04:58:27;;;;;;;37.65;22.50;;;;;;;6.89;74.72;102771.13;7389148;19;19995;-54
2023/04/09 05:00:52;;;;;;;38.42;22.65;;;;;;;6.88;74.91;102769.41;7391273;19;20009;-52
2023/04/09 05:03:18;;;;;;;37.33;22.38;;;;;;;6.88;74.80;102775.56;7391541;19;20365;-49
2023/04/09 05:05:44;;;;;;;37.75;21.75;;;;;;;6.90;74.75;102767.59;7391114;19;20007;-53
2023/04/09 05:08:10;;;;;;;37.70;21.95;;;;;;;6.89;74.60;102772.03;7390082;19;20006;-51
2023/04/09 05:10:36;;;;;;;36.53;21.77;;;;;;;6.93;74.33;102765.72;7389051;19;20415;-51
2023/04/09 05:13:01;;;;;;;40.00;22.95;;;;;;;6.93;74.34;102767.47;7391691;19;20430;-49
2023/04/09 05:15:27;;;;;;;36.33;21.60;;;;;;;6.93;74.44;102772.75;7391235;19;20513;-51
2023/04/09 05:17:53;;;;;;;37.15;22.55;;;;;;;6.95;74.52;102776.22;7390693;19;20058;-51
2023/04/09 05:20:18;;;;;;;38.30;23.42;;;;;;;6.95;74.41;102776.22;7391168;19;20010;-53
2023/04/09 05:22:44;;;;;;;41.63;23.42;;;;;;;6.93;74.46;102778.94;7388637;19;20358;-54
2023/04/09 05:25:10;;;;;;;38.35;22.45;;;;;;;6.95;74.58;102782.38;7391087;19;20002;-53
2023/04/09 05:27:35;;;;;;;38.25;23.02;;;;;;;7.05;74.03;102785.56;7388977;19;20582;-53
2023/04/09 05:30:01;;;;;;;37.90;22.42;;;;;;;7.11;73.96;102784.47;7390711;19;20020;-52
2023/04/09 05:32:27;;;;;;;37.75;23.08;;;;;;;7.10;73.66;102782.75;7390192;19;19999;-52
2023/04/09 05:34:52;;;;;;;35.03;21.10;;;;;;;7.08;74.03;102784.56;7391032;19;20007;-53
2023/04/09 05:37:18;;;;;;;36.05;22.13;;;;;;;7.15;73.38;102781.66;7397057;19;20003;-52
2023/04/09 05:39:43;;;;;;;37.00;21.65;;;;;;;7.08;73.84;102788.09;7397309;19;20034;-54
2023/04/09 05:42:09;;;;;;;36.28;21.20;;;;;;;7.15;73.62;102783.44;7398302;19;19998;-54
2023/04/09 05:44:34;;;;;;;38.10;21.33;;;;;;;7.17;73.47;102787.78;7398144;19;20003;-54
2023/04/09 05:47:00;;;;;;;38.10;21.95;;;;;;;7.21;73.70;102788.53;7395312;19;20013;-53
2023/04/09 05:49:26;;;;;;;34.35;20.08;;;;;;;7.23;73.43;102789.31;7394286;19;20007;-53
2023/04/09 05:51:52;;;;;;;36.88;21.13;;;;;;;7.23;73.35;102787.56;7398163;19;20002;-54
2023/04/09 05:54:17;;;;;;;34.17;20.00;;;;;;;7.23;73.29;102784.94;7397118;19;20007;-54
2023/04/09 05:56:43;;;;;;;37.80;21.25;;;;;;;7.19;73.82;102795.63;7397163;19;20413;-54
2023/04/09 05:59:08;;;;;;;37.13;21.95;;;;;;;7.20;73.67;102784.19;7394939;19;20010;-52
2023/04/09 06:01:34;;;;;;;34.70;20.52;;;;;;;7.25;73.32;102777.78;7398183;19;20007;-54
2023/04/09 06:03:59;;;;;;;34.58;21.33;;;;;;;7.12;73.91;102780.91;7397028;19;19998;-53
2023/04/09 06:06:25;;;;;;;39.58;21.40;;;;;;;7.10;73.90;102786.25;7394440;19;20003;-55
2023/04/09 06:08:51;;;;;;;36.35;21.63;;;;;;;7.05;74.19;102788.22;7394271;19;20052;-55
2023/04/09 06:11:17;;;;;;;38.15;22.13;;;;;;;7.12;74.03;102779.16;7394936;19;20009;-55
2023/04/09 06:13:42;;;;;;;37.13;21.25;;;;;;;7.15;74.07;102784.31;7396371;19;20021;-54
2023/04/09 06:16:08;;;;;;;34.13;20.42;;;;;;;7.14;73.89;102779.09;7397039;19;20435;-51
2023/04/09 06:18:35;;;;;;;36.13;20.38;;;;;;;7.08;73.67;102777.53;7395128;19;19999;-53
2023/04/09 06:21:06;;;;;;;33.92;19.58;;;;;;;7.14;73.80;102784.38;7396390;19;20006;-54
2023/04/09 06:23:32;;;;;;;32.30;19.67;;;;;;;7.09;73.47;102778.41;7396290;19;19999;-53
2023/04/09 06:25:58;;;;;;;35.10;20.63;;;;;;;7.03;73.82;102785.59;7396457;19;20007;-52
2023/04/09 06:28:24;;;;;;;31.40;18.88;;;;;;;7.08;73.54;102789.88;7394583;19;19998;-54
2023/04/09 06:30:50;;;;;;;31.27;20.00;;;;;;;7.08;72.97;102787.22;7396791;19;20009;-52
2023/04/09 06:33:15;;;;;;;33.80;19.67;;;;;;;7.17;72.71;102794.84;7395910;19;19998;-54
2023/04/09 06:35:41;;;;;;;31.50;18.58;;;;;;;7.21;71.98;102791.19;7396389;19;20003;-54
2023/04/09 06:38:08;;;;;;;33.38;19.98;;;;;;;7.14;71.81;102792.31;7394767;19;20036;-54
2023/04/09 06:40:37;;;;;;;32.35;19.00;;;;;;;7.21;71.67;102799.09;7395168;19;20041;-54
2023/04/09 06:43:03;;;;;;;30.38;17.98;;;;;;;7.26;71.38;102800.66;7396163;19;20054;-54
2023/04/09 06:45:30;;;;;;;32.05;18.75;;;;;;;7.39;70.80;102802.91;7395557;19;19994;-54
2023/04/09 06:47:55;;;;;;;31.50;18.38;;;;;;;7.43;70.44;102797.44;7393696;19;19998;-53
2023/04/09 06:50:21;;;;;;;30.30;18.40;;;;;;;7.52;70.10;102798.88;7394625;19;20034;-54
2023/04/09 06:52:46;;;;;;;27.73;17.30;;;;;;;7.46;69.86;102797.34;7395952;19;19999;-55
2023/04/09 06:55:12;;;;;;;27.40;17.02;;;;;;;7.50;69.62;102792.75;7395001;19;20037;-55
2023/04/09 06:57:38;;;;;;;28.55;17.67;;;;;;;7.40;69.93;102801.97;7394839;19;19999;-54
2023/04/09 07:00:04;;;;;;;27.48;17.85;;;;;;;7.53;69.43;102801.44;7395483;19;20071;-54
2023/04/09 07:02:30;;;;;;;28.48;17.17;;;;;;;7.68;69.04;102800.03;7395944;19;20054;-55
2023/04/09 07:04:55;;;;;;;29.30;16.85;;;;;;;7.83;68.22;102801.25;7395623;19;19999;-54
2023/04/09 07:07:21;;;;;;;29.92;18.30;;;;;;;7.75;67.98;102806.81;7394594;19;20356;-53
2023/04/09 07:09:47;;;;;;;29.13;18.15;;;;;;;7.77;67.99;102812.06;7393391;19;20074;-54
2023/04/09 07:12:13;;;;;;;28.15;17.77;;;;;;;7.76;67.90;102819.13;7395428;19;20003;-52
2023/04/09 07:14:38;;;;;;;26.73;16.75;;;;;;;7.95;67.20;102813.16;7394789;19;20463;-55
2023/04/09 07:17:04;;;;;;;25.45;16.20;;;;;;;7.86;67.46;102808.22;7395140;19;20058;-53
2023/04/09 07:19:30;;;;;;;27.08;17.25;;;;;;;7.87;67.13;102808.13;7391898;19;20003;-55
2023/04/09 07:21:55;;;;;;;26.73;16.60;;;;;;;8.02;66.74;102812.00;7394478;19;19995;-55
2023/04/09 07:24:21;;;;;;;26.27;16.90;;;;;;;8.15;66.05;102815.03;7394297;19;19995;-53
2023/04/09 07:26:47;;;;;;;28.73;16.92;;;;;;;8.17;65.87;102807.91;7393947;19;20332;-51
2023/04/09 07:29:12;;;;;;;25.65;15.82;;;;;;;7.99;66.15;102807.66;7393078;19;20005;-53
2023/04/09 07:31:38;;;;;;;27.55;16.30;;;;;;;7.95;66.41;102818.44;7393869;19;20374;-54
2023/04/09 07:34:03;;;;;;;26.33;16.20;;;;;;;7.91;66.54;102811.53;7393070;19;20079;-55
2023/04/09 07:36:30;;;;;;;27.58;15.82;;;;;;;7.82;66.94;102806.59;7394655;19;19995;-55
2023/04/09 07:38:56;;;;;;;26.65;15.45;;;;;;;7.81;66.86;102810.19;7391978;19;20015;-55
2023/04/09 07:41:21;;;;;;;27.48;17.77;;;;;;;7.74;67.01;102809.53;7393917;19;20220;-56
2023/04/09 07:43:47;;;;;;;26.17;16.58;;;;;;;7.75;67.14;102813.91;7394016;19;20086;-55
2023/04/09 07:46:20;;;;;;;26.08;16.27;;;;;;;7.79;66.90;102810.22;7393597;19;20010;-54
2023/04/09 07:48:46;;;;;;;28.67;17.90;;;;;;;7.73;67.01;102816.63;7392036;19;20002;-56
2023/04/09 07:51:11;;;;;;;28.35;18.10;;;;;;;7.80;67.03;102814.59;7394104;19;20733;-52
2023/04/09 07:53:37;;;;;;;25.52;16.95;;;;;;;7.85;66.79;102812.66;7393563;19;20002;-53
2023/04/09 07:56:02;;;;;;;29.17;17.60;;;;;;;7.93;66.40;102818.50;7391261;19;20348;-55
2023/04/09 07:58:28;;;;;;;31.13;17.90;;;;;;;7.90;66.90;102818.63;7390772;19;20060;-54
2023/04/09 08:00:54;;;;;;;31.58;18.65;;;;;;;8.02;66.77;102815.50;7393606;19;20588;-55
2023/04/09 08:03:21;;;;;;;30.45;19.45;;;;;;;8.10;66.49;102814.34;7393025;19;20010;-54
2023/04/09 08:05:47;;;;;;;27.67;17.85;;;;;;;8.11;66.49;102810.78;7393524;19;20006;-54
2023/04/09 08:08:12;;;;;;;29.17;18.05;;;;;;;8.15;66.48;102815.03;7392050;19;20083;-57
2023/04/09 08:10:38;;;;;;;29.27;18.02;;;;;;;8.20;65.97;102813.09;7392873;19;20074;-57
2023/04/09 08:13:03;;;;;;;28.67;18.27;;;;;;;8.15;66.10;102809.72;7391167;19;20027;-56
2023/04/09 08:15:29;;;;;;;28.10;17.65;;;;;;;8.20;65.99;102813.09;7390593;19;19994;-55
2023/04/09 08:17:55;;;;;;;29.45;18.33;;;;;;;8.24;66.05;102802.31;7391965;19;19996;-57
2023/04/09 08:20:21;;;;;;;31.65;19.67;;;;;;;8.30;66.11;102809.16;7392965;19;20455;-57
2023/04/09 08:22:46;;;;;;;29.23;18.30;;;;;;;8.22;65.90;102812.06;7392323;19;20062;-56
2023/04/09 08:25:12;;;;;;;30.02;18.27;;;;;;;8.30;65.46;102813.59;7392775;19;20010;-56
2023/04/09 08:27:38;;;;;;;27.70;17.10;;;;;;;8.35;65.47;102815.16;7391082;19;20002;-57
2023/04/09 08:30:04;;;;;;;27.13;17.88;;;;;;;8.33;65.60;102813.47;7392752;19;20003;-57
2023/04/09 08:32:30;;;;;;;29.20;17.88;;;;;;;8.39;65.36;102814.13;7392223;19;20014;-56
2023/04/09 08:34:55;;;;;;;25.80;16.15;;;;;;;8.46;65.04;102817.38;7391187;19;20002;-56
2023/04/09 08:37:21;;;;;;;26.08;16.50;;;;;;;8.51;65.01;102809.25;7392083;19;20041;-56
2023/04/09 08:39:47;;;;;;;26.90;16.23;;;;;;;8.57;64.41;102811.63;7389708;19;20113;-56
2023/04/09 08:42:13;;;;;;;26.05;16.13;;;;;;;8.64;63.83;102808.66;7391119;19;20006;-57
2023/04/09 08:44:39;;;;;;;26.30;16.27;;;;;;;8.69;63.93;102806.72;7391339;19;20003;-56
2023/04/09 08:47:10;;;;;;;25.00;15.73;;;;;;;8.78;63.74;102810.75;7391755;19;19998;-56
2023/04/09 08:49:39;;;;;;;25.08;16.02;;;;;;;8.69;63.63;102811.16;7390490;19;20062;-54
2023/04/09 08:52:05;;;;;;;25.02;16.05;;;;;;;8.74;63.79;102807.38;7391679;19;19998;-56
2023/04/09 08:54:31;;;;;;;27.33;16.35;;;;;;;8.96;63.17;102810.00;7391297;19;20008;-55
2023/04/09 08:56:57;;;;;;;27.52;17.70;;;;;;;8.89;63.35;102812.97;7391715;19;20005;-56
2023/04/09 08:59:23;;;;;;;27.92;16.77;;;;;;;8.94;63.01;102806.53;7390245;19;19999;-56
2023/04/09 09:02:05;;;;;;;28.48;18.60;;;;;;;8.94;62.88;102814.50;7390398;19;20321;-55
2023/04/09 09:04:49;;;;;;;25.20;16.15;;;;;;;8.96;62.49;102807.34;7391166;19;19995;-55
2023/04/09 09:07:16;;;;;;;25.25;15.57;;;;;;;9.12;62.85;102817.31;7390116;19;20006;-56
2023/04/09 09:09:58;;;;;;;23.77;15.13;;;;;;;9.10;62.15;102817.34;7392645;19;20006;-56
2023/04/09 09:12:40;;;;;;;26.58;16.10;;;;;;;9.04;61.27;102808.81;7397004;19;20083;-56
2023/04/09 09:15:27;;;;;;;24.33;15.63;;;;;;;9.05;62.22;102803.44;7397159;19;19998;-55
2023/04/09 09:17:55;;;;;;;27.58;16.35;;;;;;;9.06;62.43;102809.59;7396043;19;20005;-56
2023/04/09 09:20:22;;;;;;;25.38;16.10;;;;;;;8.83;62.96;102803.47;7398316;19;20007;-56
2023/04/09 09:22:53;;;;;;;25.85;16.17;;;;;;;8.94;63.12;102801.25;7398344;19;20022;-56
2023/04/09 09:25:23;;;;;;;25.73;16.30;;;;;;;9.07;62.52;102798.94;7398893;19;20014;-58
2023/04/09 09:27:49;;;;;;;25.83;15.98;;;;;;;8.99;62.72;102801.06;7397080;19;20033;-59
2023/04/09 09:30:28;;;;;;;28.00;15.65;;;;;;;9.08;62.42;102797.16;7392437;19;19995;-56
2023/04/09 09:33:04;;;;;;;27.45;16.48;;;;;;;9.18;62.75;102803.75;7397396;19;20023;-57
2023/04/09 09:35:30;;;;;;;23.75;15.43;;;;;;;9.20;62.54;102802.78;7396411;19;19999;-57
2023/04/09 09:38:05;;;;;;;25.25;15.35;;;;;;;9.31;62.04;102794.34;7393396;19;20098;-57
2023/04/09 09:40:31;;;;;;;24.20;15.40;;;;;;;9.36;61.94;102797.66;7396825;19;20475;-58
2023/04/09 09:42:56;;;;;;;25.70;16.42;;;;;;;9.33;61.22;102792.50;7395322;19;20091;-59
2023/04/09 09:45:23;;;;;;;24.05;15.52;;;;;;;9.38;61.68;102793.16;7398680;19;20310;-58
2023/04/09 09:47:50;;;;;;;24.83;15.90;;;;;;;9.59;60.98;102785.16;7396853;19;20002;-57
2023/04/09 09:50:22;;;;;;;23.55;14.73;;;;;;;9.64;60.43;102789.34;7395545;19;20003;-58
2023/04/09 09:52:50;;;;;;;25.58;15.60;;;;;;;9.54;60.99;102785.38;7394979;19;20010;-58
2023/04/09 09:55:17;;;;;;;25.00;15.40;;;;;;;9.60;61.36;102786.88;7396454;19;19999;-59
2023/04/09 09:57:43;;;;;;;24.73;15.48;;;;;;;9.47;61.21;102786.56;7394427;19;20002;-58
2023/04/09 10:00:12;;;;;;;26.02;16.17;;;;;;;9.44;61.84;102784.06;7396095;19;20022;-58
2023/04/09 10:02:56;;;;;;;24.83;15.13;;;;;;;9.41;60.81;102779.78;7396970;19;20010;-58
2023/04/09 10:05:26;;;;;;;23.77;15.32;;;;;;;9.46;61.41;102784.84;7394959;19;20017;-59
2023/04/09 10:07:56;;;;;;;23.13;15.32;;;;;;;9.47;61.21;102773.31;7394955;19;20286;-59
2023/04/09 10:10:24;;;;;;;24.10;15.73;;;;;;;9.57;60.92;102773.78;7395642;19;20006;-58
2023/04/09 10:12:51;;;;;;;25.10;15.88;;;;;;;9.53;60.85;102765.09;7396549;19;20065;-57
2023/04/09 10:15:18;;;;;;;25.02;15.93;;;;;;;9.53;61.28;102769.53;7395759;19;20018;-58
2023/04/09 10:17:50;;;;;;;25.33;15.25;;;;;;;9.60;60.85;102763.88;7395891;19;20006;-57
2023/04/09 10:20:23;;;;;;;23.27;15.30;;;;;;;9.59;60.86;102755.97;7394417;19;20084;-58
2023/04/09 10:22:51;;;;;;;25.00;15.88;;;;;;;9.70;60.09;102757.19;7395975;19;20003;-57
2023/04/09 10:25:17;;;;;;;23.35;14.88;;;;;;;9.78;60.24;102756.84;7393380;19;20006;-57
2023/04/09 10:27:47;;;;;;;23.13;15.25;;;;;;;9.86;60.11;102753.84;7392936;19;19995;-57
2023/04/09 10:30:36;;;;;;;23.30;14.10;;;;;;;9.92;58.98;102751.78;7393540;19;20006;-57
2023/04/09 10:33:14;;;;;;;22.70;14.48;;;;;;;10.02;59.33;102751.34;7393436;19;20062;-57
2023/04/09 10:35:39;;;;;;;25.17;15.90;;;;;;;10.03;59.73;102753.94;7396205;19;20070;-57
2023/04/09 10:38:13;;;;;;;24.60;16.02;;;;;;;10.02;60.06;102743.38;7393801;19;21505;-57
2023/04/09 10:40:41;;;;;;;24.85;15.65;;;;;;;9.95;60.11;102746.34;7396101;19;20024;-57
2023/04/09 10:43:08;;;;;;;22.67;14.70;;;;;;;10.10;59.31;102743.91;7396707;19;20011;-57
2023/04/09 10:45:41;;;;;;;22.33;14.50;;;;;;;10.32;59.06;102744.53;7396788;19;20010;-58
2023/04/09 10:48:14;;;;;;;24.13;14.65;;;;;;;10.37;58.43;102750.50;7395099;19;20363;-57
2023/04/09 10:50:49;;;;;;;23.55;13.98;;;;;;;10.34;57.57;102748.00;7397022;19;20309;-58
2023/04/09 10:53:22;;;;;;;23.05;14.70;;;;;;;10.25;57.11;102750.22;7397430;19;20009;-58
2023/04/09 10:55:50;;;;;;;24.42;14.40;;;;;;;10.27;57.94;102748.38;7398338;19;20385;-58
2023/04/09 10:58:15;;;;;;;25.50;15.20;;;;;;;10.13;58.32;102746.38;7397037;19;20009;-58
2023/04/09 11:00:46;;;;;;;23.90;15.25;;;;;;;10.18;58.55;102744.38;7397613;19;20022;-57
2023/04/09 11:03:20;;;;;;;21.73;14.25;;;;;;;10.07;58.89;102736.06;7398760;19;19999;-57
2023/04/09 11:05:48;;;;;;;;;;;;;;;9.92;58.69;102725.22;7398287;19;21112;-57
2023/04/09 11:08:15;;;;;;;25.60;16.25;;;;;;;10.08;59.41;102732.47;7396311;19;19940;-58
2023/04/09 11:10:50;;;;;;;26.17;16.02;;;;;;;10.27;59.08;102721.81;7397287;19;19999;-57
2023/04/09 11:13:18;;;;;;;24.33;15.23;;;;;;;10.29;59.01;102728.78;7397449;19;20021;-57
2023/04/09 11:15:44;;;;;;;24.70;16.48;;;;;;;10.43;58.18;102726.28;7398211;19;20026;-57
2023/04/09 11:18:24;;;;;;;23.65;14.80;;;;;;;10.56;57.60;102723.03;7396677;19;20021;-57